Time;durP1;ratioP1;P1;durP2;ratioP2;P2;SDS_P1;SDS_P2;PMS_P1;PMS_P2;Temp;Humidity;BMP_temperature;BMP_pressure;BME280_temperature;BME280_humidity;BME280_pressure;Samples;Min_cycle;Max_cycle;Signal;HPM_P1;HPM_P2
2022/05/12 00:00:39;;;;;;;3.93;3.63;;;;;;;;;;5052902;28;20446;-77
2022/05/12 00:03:06;;;;;;;5.07;3.90;;;;;;;;;;5072565;28;20426;-77
2022/05/12 00:05:34;;;;;;;3.70;3.40;;;;;;;;;;5070567;28;20865;-78
2022/05/12 00:08:00;;;;;;;4.10;3.70;;;;;;;;;;5054763;28;20473;-78
2022/05/12 00:10:27;;;;;;;5.70;4.17;;;;;;;;;;5071916;28;20464;-78
2022/05/12 00:12:54;;;;;;;4.50;4.10;;;;;;;;;;5053470;28;20470;-78
2022/05/12 00:15:21;;;;;;;4.77;4.33;;;;;;;;;;5072501;28;20439;-78
2022/05/12 00:17:48;;;;;;;4.43;4.03;;;;;;;;;;5072697;28;20414;-78
2022/05/12 00:20:15;;;;;;;4.50;4.03;;;;;;;;;;5067539;28;20451;-78
2022/05/12 00:22:43;;;;;;;4.30;3.90;;;;;;;;;;5044028;28;20435;-78
2022/05/12 00:25:11;;;;;;;4.87;4.37;;;;;;;;;;5062597;28;20463;-78
2022/05/12 00:27:37;;;;;;;4.77;4.27;;;;;;;;;;5054574;28;20933;-78
2022/05/12 00:30:09;;;;;;;5.63;3.93;;;;;;;;;;5053296;28;20478;-78
2022/05/12 00:32:35;;;;;;;4.57;3.70;;;;;;;;;;5033512;28;20465;-78
2022/05/12 00:35:02;;;;;;;4.30;3.90;;;;;;;;;;5070803;28;20441;-78
2022/05/12 00:37:28;;;;;;;5.30;4.50;;;;;;;;;;5053405;28;20944;-78
2022/05/12 00:39:56;;;;;;;4.67;4.27;;;;;;;;;;5041730;28;20447;-78
2022/05/12 00:42:23;;;;;;;4.23;3.93;;;;;;;;;;5066787;28;20438;-78
2022/05/12 00:44:49;;;;;;;4.50;4.10;;;;;;;;;;5053423;28;20473;-78
2022/05/12 00:47:15;;;;;;;4.20;3.80;;;;;;;;;;5052820;28;21141;-78
2022/05/12 00:49:42;;;;;;;4.80;4.40;;;;;;;;;;5069945;28;20766;-78
2022/05/12 00:52:10;;;;;;;4.33;3.93;;;;;;;;;;5050540;28;20905;-78
2022/05/12 00:54:39;;;;;;;4.30;3.90;;;;;;;;;;5070246;28;20539;-78
2022/05/12 00:57:09;;;;;;;5.43;4.23;;;;;;;;;;5052538;28;20484;-78
2022/05/12 00:59:36;;;;;;;6.00;3.97;;;;;;;;;;5051663;28;20457;-78
2022/05/12 01:02:04;;;;;;;4.50;4.10;;;;;;;;;;5053235;28;20442;-78
2022/05/12 01:04:32;;;;;;;7.23;4.40;;;;;;;;;;5068427;28;20438;-78
2022/05/12 01:06:58;;;;;;;4.90;4.40;;;;;;;;;;5053582;28;20488;-78
2022/05/12 01:09:26;;;;;;;4.80;4.37;;;;;;;;;;5052552;28;20454;-78
2022/05/12 01:11:52;;;;;;;5.17;4.67;;;;;;;;;;5052828;28;20476;-78
2022/05/12 01:14:20;;;;;;;4.87;4.47;;;;;;;;;;5070404;28;20790;-78
2022/05/12 01:16:48;;;;;;;5.77;4.10;;;;;;;;;;5053416;28;20544;-78
2022/05/12 01:19:15;;;;;;;4.70;4.17;;;;;;;;;;5052246;28;20454;-78
2022/05/12 01:21:42;;;;;;;4.77;4.00;;;;;;;;;;5067007;28;20458;-78
2022/05/12 01:24:10;;;;;;;4.60;4.20;;;;;;;;;;5052620;28;20492;-78
2022/05/12 01:26:37;;;;;;;5.67;5.13;;;;;;;;;;5052631;28;20577;-78
2022/05/12 01:29:04;;;;;;;4.80;4.30;;;;;;;;;;5052159;28;20459;-78
2022/05/12 01:31:30;;;;;;;4.87;4.37;;;;;;;;;;5053342;28;20461;-78
2022/05/12 01:33:57;;;;;;;4.60;4.20;;;;;;;;;;5051952;28;20505;-78
2022/05/12 01:36:24;;;;;;;4.70;4.30;;;;;;;;;;5068797;28;20463;-78
2022/05/12 01:38:50;;;;;;;4.30;3.90;;;;;;;;;;5070192;28;20960;-78
2022/05/12 01:41:18;;;;;;;4.37;4.03;;;;;;;;;;5055737;28;20532;-78
2022/05/12 01:43:45;;;;;;;5.37;4.33;;;;;;;;;;5059427;28;20432;-78
2022/05/12 01:46:11;;;;;;;4.93;4.43;;;;;;;;;;5069552;28;20470;-78
2022/05/12 01:48:39;;;;;;;5.00;4.50;;;;;;;;;;5052094;28;20457;-78
2022/05/12 01:51:05;;;;;;;5.50;4.97;;;;;;;;;;5070357;28;20446;-78
2022/05/12 01:53:32;;;;;;;6.07;5.57;;;;;;;;;;5051819;28;20464;-78
2022/05/12 01:55:59;;;;;;;5.07;4.40;;;;;;;;;;5052608;28;20453;-78
2022/05/12 01:58:27;;;;;;;6.70;4.73;;;;;;;;;;5069652;28;20932;-78
2022/05/12 02:00:54;;;;;;;5.33;4.83;;;;;;;;;;5070090;28;20963;-78
2022/05/12 02:03:20;;;;;;;5.10;4.60;;;;;;;;;;5070419;28;20657;-78
2022/05/12 02:05:47;;;;;;;4.70;4.30;;;;;;;;;;5068743;28;20673;-78
2022/05/12 02:08:14;;;;;;;5.33;4.73;;;;;;;;;;5069911;28;20430;-78
2022/05/12 02:10:42;;;;;;;4.97;4.57;;;;;;;;;;5056317;28;20442;-78
2022/05/12 02:13:09;;;;;;;5.37;4.63;;;;;;;;;;5069595;28;20465;-78
2022/05/12 02:15:37;;;;;;;7.90;4.60;;;;;;;;;;5072766;28;20442;-78
2022/05/12 02:18:04;;;;;;;7.10;4.43;;;;;;;;;;5074324;28;21002;-78
2022/05/12 02:20:30;;;;;;;4.67;4.27;;;;;;;;;;5073072;28;20868;-78
2022/05/12 02:22:57;;;;;;;5.53;4.30;;;;;;;;;;5055557;28;20955;-78
2022/05/12 02:25:23;;;;;;;5.30;4.80;;;;;;;;;;5034428;28;20443;-78
2022/05/12 02:27:51;;;;;;;4.90;4.50;;;;;;;;;;5050555;28;20450;-78
2022/05/12 02:30:18;;;;;;;5.13;4.57;;;;;;;;;;5038385;28;20564;-78
2022/05/12 02:32:46;;;;;;;9.03;4.17;;;;;;;;;;5072541;28;20556;-78
2022/05/12 02:35:12;;;;;;;4.77;4.27;;;;;;;;;;5054555;28;20430;-78
2022/05/12 02:37:39;;;;;;;5.10;4.60;;;;;;;;;;5063014;28;20441;-78
2022/05/12 02:40:06;;;;;;;4.93;4.43;;;;;;;;;;5079535;28;20449;-78
2022/05/12 02:42:32;;;;;;;5.67;4.30;;;;;;;;;;5073639;28;20438;-78
2022/05/12 02:44:59;;;;;;;8.73;4.50;;;;;;;;;;5067772;28;20457;-78
2022/05/12 02:47:25;;;;;;;4.30;3.90;;;;;;;;;;5073584;28;20461;-78
2022/05/12 02:49:53;;;;;;;4.90;4.50;;;;;;;;;;5073419;28;20786;-78
2022/05/12 02:52:20;;;;;;;5.57;4.73;;;;;;;;;;5054855;28;20459;-78
2022/05/12 02:54:46;;;;;;;5.80;4.90;;;;;;;;;;5073692;28;20470;-79
2022/05/12 02:57:13;;;;;;;5.27;4.77;;;;;;;;;;5073802;28;20538;-78
2022/05/12 02:59:39;;;;;;;4.50;4.10;;;;;;;;;;5055314;28;20493;-78
2022/05/12 03:02:06;;;;;;;5.40;5.00;;;;;;;;;;5071396;28;20441;-78
2022/05/12 03:04:33;;;;;;;5.07;4.50;;;;;;;;;;5071603;28;20441;-78
2022/05/12 03:07:01;;;;;;;4.97;4.33;;;;;;;;;;5055500;28;20441;-78
2022/05/12 03:09:27;;;;;;;5.87;4.33;;;;;;;;;;5072803;28;20434;-78
2022/05/12 03:11:53;;;;;;;4.83;4.40;;;;;;;;;;5072933;28;20473;-78
2022/05/12 03:14:20;;;;;;;4.90;4.40;;;;;;;;;;5073156;28;20472;-78
2022/05/12 03:16:46;;;;;;;4.80;4.40;;;;;;;;;;5055528;28;20995;-78
2022/05/12 03:19:14;;;;;;;5.10;4.47;;;;;;;;;;5071551;28;20438;-78
2022/05/12 03:21:40;;;;;;;4.27;3.80;;;;;;;;;;5054379;28;20450;-78
2022/05/12 03:24:09;;;;;;;9.33;4.40;;;;;;;;;;5070706;28;20426;-78
2022/05/12 03:26:35;;;;;;;4.70;4.27;;;;;;;;;;5073262;28;20434;-78
2022/05/12 03:29:01;;;;;;;4.67;4.23;;;;;;;;;;5055104;28;20422;-78
2022/05/12 03:31:28;;;;;;;5.07;4.57;;;;;;;;;;5054618;28;20438;-78
2022/05/12 03:33:54;;;;;;;5.83;4.37;;;;;;;;;;5054007;28;20519;-78
2022/05/12 03:36:21;;;;;;;4.20;3.80;;;;;;;;;;5073085;28;20442;-78
2022/05/12 03:38:48;;;;;;;4.70;4.30;;;;;;;;;;5072500;28;20438;-78
2022/05/12 03:41:16;;;;;;;5.60;4.23;;;;;;;;;;5072978;28;20783;-77
2022/05/12 03:46:27;;;;;;;8.87;3.90;;;;;;;;;;5046156;28;20473;-78
2022/05/12 03:48:53;;;;;;;4.13;3.73;;;;;;;;;;5074493;28;20942;-78
2022/05/12 03:51:20;;;;;;;8.83;4.33;;;;;;;;;;5045069;28;20975;-78
2022/05/12 03:53:46;;;;;;;4.87;2.83;;;;;;;;;;5070982;28;20536;-78
2022/05/12 03:56:13;;;;;;;3.70;3.40;;;;;;;;;;5073039;28;20525;-78
2022/05/12 03:58:41;;;;;;;3.93;3.53;;;;;;;;;;5071990;28;20505;-78
2022/05/12 04:01:07;;;;;;;3.97;3.57;;;;;;;;;;5052361;28;20439;-78
2022/05/12 04:03:34;;;;;;;3.73;3.40;;;;;;;;;;5072127;28;20426;-78
2022/05/12 04:06:02;;;;;;;3.53;3.17;;;;;;;;;;5055271;28;20468;-78
2022/05/12 04:08:28;;;;;;;3.87;3.53;;;;;;;;;;5072709;28;20438;-78
2022/05/12 04:10:55;;;;;;;4.67;3.50;;;;;;;;;;5054231;28;20445;-77
2022/05/12 04:13:21;;;;;;;4.03;3.17;;;;;;;;;;5065318;28;20462;-77
2022/05/12 04:15:49;;;;;;;3.53;2.93;;;;;;;;;;5072586;28;20442;-78
2022/05/12 04:18:16;;;;;;;3.23;2.60;;;;;;;;;;5070927;28;20802;-77
2022/05/12 04:20:42;;;;;;;3.40;3.10;;;;;;;;;;5060414;28;20446;-78
2022/05/12 04:23:09;;;;;;;3.10;2.37;;;;;;;;;;5065567;28;20443;-78
2022/05/12 04:25:36;;;;;;;3.10;2.80;;;;;;;;;;5072402;28;20449;-77
2022/05/12 04:28:03;;;;;;;2.73;2.53;;;;;;;;;;5067235;28;20461;-77
2022/05/12 04:30:30;;;;;;;4.50;3.70;;;;;;;;;;5047689;28;20442;-78
2022/05/12 04:35:11;;;;;;;2.90;2.63;;;;;;;;;;5045399;28;20433;-77
2022/05/12 04:35:43;;;;;;;2.97;2.53;;;;;;;;;;5059699;28;20958;-77
2022/05/12 04:38:11;;;;;;;2.40;2.20;;;;;;;;;;5053567;28;20521;-78
2022/05/12 04:40:37;;;;;;;2.90;2.60;;;;;;;;;;5072056;28;20193;-77
2022/05/12 04:43:04;;;;;;;3.13;1.97;;;;;;;;;;5071483;28;20441;-77
2022/05/12 04:45:31;;;;;;;6.83;2.77;;;;;;;;;;5071670;28;20831;-77
2022/05/12 04:47:59;;;;;;;3.13;2.83;;;;;;;;;;5072577;28;20414;-78
2022/05/12 04:50:27;;;;;;;3.07;2.80;;;;;;;;;;5071440;28;20943;-77
2022/05/12 04:52:53;;;;;;;4.10;3.23;;;;;;;;;;5053093;28;20438;-77
2022/05/12 04:55:20;;;;;;;3.03;2.63;;;;;;;;;;5068042;28;20481;-79
2022/05/12 04:57:48;;;;;;;3.20;2.90;;;;;;;;;;5053325;28;20529;-79
2022/05/12 05:00:16;;;;;;;3.77;2.70;;;;;;;;;;5053630;28;20482;-79
2022/05/12 05:02:43;;;;;;;3.07;2.57;;;;;;;;;;5060765;28;20941;-79
2022/05/12 05:05:11;;;;;;;3.20;2.83;;;;;;;;;;5066380;28;20442;-79
2022/05/12 05:07:37;;;;;;;4.50;2.93;;;;;;;;;;5051202;28;20462;-78
2022/05/12 05:10:05;;;;;;;3.17;2.83;;;;;;;;;;5070930;28;20457;-79
2022/05/12 05:12:31;;;;;;;3.90;3.13;;;;;;;;;;5049752;28;20446;-79
2022/05/12 05:14:58;;;;;;;3.77;2.50;;;;;;;;;;5037682;28;20860;-79
2022/05/12 05:17:24;;;;;;;3.10;2.70;;;;;;;;;;5052432;28;20442;-79
2022/05/12 05:19:51;;;;;;;3.73;2.60;;;;;;;;;;5035530;28;20833;-79
2022/05/12 05:22:18;;;;;;;4.00;3.30;;;;;;;;;;5041156;28;20437;-79
2022/05/12 05:24:45;;;;;;;3.77;3.07;;;;;;;;;;5052528;28;20435;-79
2022/05/12 05:27:11;;;;;;;3.30;2.47;;;;;;;;;;5060298;28;20443;-79
2022/05/12 05:29:39;;;;;;;5.77;2.90;;;;;;;;;;5061020;28;20430;-79
2022/05/12 05:32:06;;;;;;;3.47;2.60;;;;;;;;;;5051140;28;20427;-79
2022/05/12 05:34:32;;;;;;;4.33;2.90;;;;;;;;;;5045846;28;20463;-79
2022/05/12 05:36:59;;;;;;;5.03;3.10;;;;;;;;;;5069955;28;20553;-79
2022/05/12 05:39:27;;;;;;;5.30;3.00;;;;;;;;;;5069080;28;20452;-79
2022/05/12 05:41:57;;;;;;;3.70;3.20;;;;;;;;;;5099642;22;20489;-76
2022/05/12 05:44:24;;;;;;;3.20;2.63;;;;;;;;;;5032510;28;20435;-76
2022/05/12 05:46:50;;;;;;;4.40;3.00;;;;;;;;;;5050239;28;20447;-76
2022/05/12 05:49:17;;;;;;;5.60;3.30;;;;;;;;;;5033595;28;20492;-76
2022/05/12 05:54:31;;;;;;;3.03;2.73;;;;;;;;;;5030115;28;20524;-77
2022/05/12 05:56:58;;;;;;;5.97;2.70;;;;;;;;;;5032307;28;20891;-76
2022/05/12 05:59:24;;;;;;;5.83;2.80;;;;;;;;;;5032987;28;20884;-76
2022/05/12 06:01:51;;;;;;;3.97;2.57;;;;;;;;;;5053196;28;20508;-76
2022/05/12 06:04:17;;;;;;;3.03;2.70;;;;;;;;;;5068540;28;20479;-76
2022/05/12 06:06:44;;;;;;;12.07;3.93;;;;;;;;;;5033472;28;20455;-76
2022/05/12 06:09:12;;;;;;;4.33;3.10;;;;;;;;;;5038933;28;20446;-76
2022/05/12 06:11:41;;;;;;;3.47;3.17;;;;;;;;;;5045577;28;20458;-76
2022/05/12 06:14:08;;;;;;;3.97;2.77;;;;;;;;;;5053077;28;20481;-76
2022/05/12 06:16:35;;;;;;;7.00;3.27;;;;;;;;;;5056893;28;20447;-76
2022/05/12 06:19:01;;;;;;;3.40;2.63;;;;;;;;;;5029529;28;20938;-76
2022/05/12 06:21:28;;;;;;;3.73;2.90;;;;;;;;;;5049913;28;20446;-77
2022/05/12 06:23:54;;;;;;;4.20;2.77;;;;;;;;;;5071042;28;20427;-77
2022/05/12 06:26:21;;;;;;;2.87;2.67;;;;;;;;;;5038806;28;20439;-76
2022/05/12 06:28:49;;;;;;;3.20;2.70;;;;;;;;;;5032880;28;20493;-76
2022/05/12 06:31:19;;;;;;;4.57;4.10;;;;;;;;;;5016149;28;20915;-76
2022/05/12 06:33:46;;;;;;;9.50;6.00;;;;;;;;;;5052096;28;20438;-76
2022/05/12 06:36:12;;;;;;;3.93;3.53;;;;;;;;;;5041421;28;20489;-76
2022/05/12 06:38:39;;;;;;;5.43;3.70;;;;;;;;;;5050181;28;20539;-76
2022/05/12 06:41:06;;;;;;;4.73;4.23;;;;;;;;;;5050018;28;20455;-76
2022/05/12 06:43:33;;;;;;;5.03;3.07;;;;;;;;;;5058567;28;20478;-76
2022/05/12 06:46:01;;;;;;;4.50;3.53;;;;;;;;;;5048146;28;20541;-76
2022/05/12 06:48:27;;;;;;;5.03;4.53;;;;;;;;;;5051501;28;20465;-76
2022/05/12 06:50:54;;;;;;;4.47;3.53;;;;;;;;;;5052204;28;20442;-77
2022/05/12 06:53:20;;;;;;;6.60;6.00;;;;;;;;;;5035382;28;20477;-77
2022/05/12 06:55:47;;;;;;;4.87;4.43;;;;;;;;;;5052474;28;20585;-77
2022/05/12 06:58:17;;;;;;;5.73;4.70;;;;;;;;;;5051998;28;20524;-77
2022/05/12 07:00:43;;;;;;;8.00;5.97;;;;;;;;;;5064558;28;20484;-77
2022/05/12 07:03:12;;;;;;;7.10;5.10;;;;;;;;;;5055096;28;20977;-77
2022/05/12 07:05:39;;;;;;;4.43;4.03;;;;;;;;;;5055663;28;20457;-76
2022/05/12 07:08:06;;;;;;;5.57;5.03;;;;;;;;;;5049303;28;20442;-76
2022/05/12 07:10:33;;;;;;;7.40;5.10;;;;;;;;;;5054752;28;20438;-76
2022/05/12 07:12:59;;;;;;;5.20;3.67;;;;;;;;;;5055407;28;20438;-76
2022/05/12 07:15:27;;;;;;;2.80;2.60;;;;;;;;;;5055358;28;20544;-76
2022/05/12 07:17:55;;;;;;;7.20;3.90;;;;;;;;;;5061656;28;20456;-76
2022/05/12 07:28:36;;;;;;;4.67;2.70;;;;;;;;;;5055331;28;20426;-76
2022/05/12 07:31:03;;;;;;;3.70;3.07;;;;;;;;;;5054994;28;20784;-76
2022/05/12 07:33:30;;;;;;;3.67;3.37;;;;;;;;;;5054218;28;20434;-76
2022/05/12 07:35:58;;;;;;;5.60;3.90;;;;;;;;;;5049863;28;20502;-76
2022/05/12 07:38:24;;;;;;;3.83;3.00;;;;;;;;;;5054998;28;20995;-76
2022/05/12 07:40:51;;;;;;;3.13;2.60;;;;;;;;;;5038729;28;20544;-76
2022/05/12 07:43:18;;;;;;;3.17;2.87;;;;;;;;;;5053042;28;20477;-76
2022/05/12 07:45:44;;;;;;;3.43;2.97;;;;;;;;;;5033991;28;20898;-76
2022/05/12 07:48:11;;;;;;;2.67;2.47;;;;;;;;;;5043523;28;20434;-76
2022/05/12 07:50:39;;;;;;;3.20;2.67;;;;;;;;;;5052973;28;20430;-76
2022/05/12 07:53:07;;;;;;;3.17;2.43;;;;;;;;;;5018250;28;20435;-76
2022/05/12 07:55:34;;;;;;;3.67;2.40;;;;;;;;;;5041187;28;20529;-77
2022/05/12 07:58:00;;;;;;;2.90;2.30;;;;;;;;;;5034827;28;20496;-77
2022/05/12 08:00:28;;;;;;;7.23;2.87;;;;;;;;;;5034217;28;21011;-78
2022/05/12 08:02:56;;;;;;;3.23;2.77;;;;;;;;;;5043379;28;20445;-76
2022/05/12 08:05:22;;;;;;;3.40;3.00;;;;;;;;;;5065377;28;20438;-76
2022/05/12 08:07:49;;;;;;;7.70;2.83;;;;;;;;;;5053980;28;20453;-75
2022/05/12 08:10:17;;;;;;;3.00;2.57;;;;;;;;;;5072078;28;20446;-76
2022/05/12 08:12:44;;;;;;;3.07;2.43;;;;;;;;;;5050849;28;20435;-77
2022/05/12 08:15:10;;;;;;;4.87;2.83;;;;;;;;;;5065262;28;20478;-78
2022/05/12 08:17:37;;;;;;;3.33;3.03;;;;;;;;;;5049253;28;20450;-78
2022/05/12 08:20:05;;;;;;;3.30;2.97;;;;;;;;;;5036611;28;20438;-78
2022/05/12 08:22:31;;;;;;;3.50;2.73;;;;;;;;;;5063301;28;20453;-78
2022/05/12 08:24:58;;;;;;;3.03;2.73;;;;;;;;;;5063736;28;20591;-78
2022/05/12 08:27:26;;;;;;;4.23;3.10;;;;;;;;;;5054889;28;20545;-79
2022/05/12 08:29:52;;;;;;;2.80;2.60;;;;;;;;;;5033399;28;20477;-78
2022/05/12 08:32:19;;;;;;;7.23;2.70;;;;;;;;;;5066584;28;20445;-78
2022/05/12 08:34:46;;;;;;;3.00;2.80;;;;;;;;;;5052370;28;20470;-78
2022/05/12 08:37:15;;;;;;;4.07;3.00;;;;;;;;;;5050405;28;20566;-78
2022/05/12 08:39:44;;;;;;;3.10;2.80;;;;;;;;;;5038270;28;20449;-79
2022/05/12 08:42:14;;;;;;;2.70;2.50;;;;;;;;;;5055796;28;20584;-78
2022/05/12 08:44:42;;;;;;;4.57;3.17;;;;;;;;;;5041245;28;20438;-80
2022/05/12 08:47:12;;;;;;;4.60;3.50;;;;;;;;;;5046903;28;20543;-78
2022/05/12 08:49:39;;;;;;;3.77;3.47;;;;;;;;;;5033837;28;20432;-78
2022/05/12 08:52:10;;;;;;;6.07;3.17;;;;;;;;;;5058620;28;20986;-78
2022/05/12 08:54:37;;;;;;;3.30;3.00;;;;;;;;;;5065725;28;20462;-81
2022/05/12 08:57:05;;;;;;;3.00;2.80;;;;;;;;;;5043996;28;20454;-79
2022/05/12 08:59:33;;;;;;;3.90;3.00;;;;;;;;;;5061489;28;20455;-79
2022/05/12 09:02:05;;;;;;;2.93;2.73;;;;;;;;;;5052195;28;20465;-80
2022/05/12 09:04:56;;;;;;;3.67;2.90;;;;;;;;;;5064076;28;20423;-80
2022/05/12 09:07:27;;;;;;;3.67;2.77;;;;;;;;;;5028763;28;20464;-79
2022/05/12 09:09:58;;;;;;;3.97;3.50;;;;;;;;;;5052475;28;20772;-79
2022/05/12 09:12:32;;;;;;;3.47;3.17;;;;;;;;;;5043215;28;20461;-79
2022/05/12 09:15:00;;;;;;;3.50;3.20;;;;;;;;;;5061260;28;20476;-78
2022/05/12 09:17:31;;;;;;;4.37;3.97;;;;;;;;;;5041965;28;20451;-79
2022/05/12 09:19:59;;;;;;;4.53;4.13;;;;;;;;;;5032796;28;20652;-79
2022/05/12 09:22:27;;;;;;;3.70;3.40;;;;;;;;;;5050691;28;20798;-79
2022/05/12 09:24:53;;;;;;;4.30;3.93;;;;;;;;;;5050284;28;20438;-79
2022/05/12 09:27:27;;;;;;;4.03;3.73;;;;;;;;;;5051650;28;20492;-79
2022/05/12 09:29:53;;;;;;;3.83;3.53;;;;;;;;;;5070519;28;20414;-79
2022/05/12 09:32:22;;;;;;;4.30;3.90;;;;;;;;;;5051995;28;20434;-80
2022/05/12 09:35:03;;;;;;;4.50;3.60;;;;;;;;;;5055507;28;20475;-79
2022/05/12 09:37:32;;;;;;;4.37;4.00;;;;;;;;;;5048871;28;20453;-79
2022/05/12 09:40:01;;;;;;;4.40;4.00;;;;;;;;;;5050954;28;20530;-79
2022/05/12 09:42:39;;;;;;;4.13;3.73;;;;;;;;;;5038561;28;21023;-78
2022/05/12 09:45:08;;;;;;;3.93;3.50;;;;;;;;;;5030327;28;20507;-78
2022/05/12 09:47:35;;;;;;;6.87;3.83;;;;;;;;;;5029132;28;21036;-79
2022/05/12 09:50:16;;;;;;;3.97;3.67;;;;;;;;;;5027871;28;20519;-80
2022/05/12 09:52:46;;;;;;;4.10;3.70;;;;;;;;;;5022184;28;20809;-80
2022/05/12 09:55:14;;;;;;;3.87;3.57;;;;;;;;;;5016046;28;20497;-79
2022/05/12 09:57:49;;;;;;;4.50;4.10;;;;;;;;;;5020785;28;20452;-80
2022/05/12 10:00:25;;;;;;;5.83;4.20;;;;;;;;;;5016809;28;20459;-78
2022/05/12 10:08:22;;;;;;;4.87;4.47;;;;;;;;;;5021479;28;20486;-79
2022/05/12 10:10:52;;;;;;;4.67;4.27;;;;;;;;;;5026103;28;20470;-79
2022/05/12 10:13:22;;;;;;;4.87;4.37;;;;;;;;;;5006801;28;20475;-79
2022/05/12 10:15:50;;;;;;;5.17;4.73;;;;;;;;;;5017598;28;20459;-78
2022/05/12 10:18:18;;;;;;;5.40;4.77;;;;;;;;;;5010149;28;20421;-78
2022/05/12 10:20:45;;;;;;;5.33;4.70;;;;;;;;;;5009228;28;20447;-78
2022/05/12 10:23:16;;;;;;;5.10;4.60;;;;;;;;;;5008042;28;20454;-78
2022/05/12 10:25:58;;;;;;;5.30;4.90;;;;;;;;;;5024857;28;20492;-78
2022/05/12 10:28:28;;;;;;;5.70;4.97;;;;;;;;;;5030548;28;20777;-78
2022/05/12 10:31:00;;;;;;;5.53;5.00;;;;;;;;;;5028012;28;20448;-78
2022/05/12 10:33:33;;;;;;;5.07;4.30;;;;;;;;;;5022313;28;20454;-78
2022/05/12 10:36:06;;;;;;;8.90;7.93;;;;;;;;;;5027127;28;20865;-78
2022/05/12 10:38:39;;;;;;;5.77;5.27;;;;;;;;;;5013222;28;20448;-78
2022/05/12 10:41:10;;;;;;;7.40;5.03;;;;;;;;;;5014096;28;20649;-78
2022/05/12 10:43:46;;;;;;;6.20;5.60;;;;;;;;;;5015192;28;20432;-78
2022/05/12 10:46:17;;;;;;;7.97;7.10;;;;;;;;;;5012870;28;20953;-78
2022/05/12 10:48:49;;;;;;;4.80;4.30;;;;;;;;;;5013830;28;20796;-78
2022/05/12 10:51:20;;;;;;;5.70;4.47;;;;;;;;;;5020836;28;21011;-78
2022/05/12 10:53:51;;;;;;;4.87;4.30;;;;;;;;;;5020885;28;20554;-78
2022/05/12 10:56:31;;;;;;;5.07;4.67;;;;;;;;;;5019012;28;20468;-78
2022/05/12 10:59:07;;;;;;;5.23;4.83;;;;;;;;;;5021313;28;20570;-78
2022/05/12 11:01:34;;;;;;;5.10;4.60;;;;;;;;;;5012298;28;20810;-78
2022/05/12 11:04:04;;;;;;;6.63;4.20;;;;;;;;;;5012901;28;20440;-78
2022/05/12 11:06:33;;;;;;;5.10;4.53;;;;;;;;;;5012897;28;20432;-78
2022/05/12 11:09:02;;;;;;;5.83;5.33;;;;;;;;;;5032586;28;20447;-78
2022/05/12 11:11:33;;;;;;;7.30;5.27;;;;;;;;;;5035679;28;20437;-78
2022/05/12 11:14:04;;;;;;;5.40;4.90;;;;;;;;;;5032098;28;20474;-77
2022/05/12 11:16:34;;;;;;;5.33;4.83;;;;;;;;;;5030143;28;20482;-77
2022/05/12 11:19:05;;;;;;;5.10;4.60;;;;;;;;;;5018341;28;20463;-78
2022/05/12 11:21:32;;;;;;;5.50;4.83;;;;;;;;;;5012722;28;20417;-78
2022/05/12 11:24:19;;;;;;;6.77;6.07;;;;;;;;;;5013655;28;20772;-77
2022/05/12 11:27:04;;;;;;;5.83;5.33;;;;;;;;;;5008287;28;20507;-78
2022/05/12 11:29:44;;;;;;;4.90;4.40;;;;;;;;;;5017614;28;20805;-78
2022/05/12 11:32:19;;;;;;;5.70;4.50;;;;;;;;;;5016891;28;20488;-78
2022/05/12 11:34:47;;;;;;;5.43;4.63;;;;;;;;;;5029881;28;20463;-78
2022/05/12 11:37:28;;;;;;;5.00;4.50;;;;;;;;;;5031670;28;20922;-78
2022/05/12 11:39:55;;;;;;;9.60;5.00;;;;;;;;;;5033101;28;21159;-78
2022/05/12 11:42:24;;;;;;;5.77;5.27;;;;;;;;;;5040406;28;20471;-78
2022/05/12 11:44:59;;;;;;;13.93;5.53;;;;;;;;;;5048993;28;21019;-78
2022/05/12 11:47:43;;;;;;;6.03;5.33;;;;;;;;;;5072641;28;20418;-78
2022/05/12 11:50:24;;;;;;;6.73;5.70;;;;;;;;;;5071244;28;20511;-79
2022/05/12 11:52:59;;;;;;;5.53;5.13;;;;;;;;;;5044946;28;20561;-78
2022/05/12 11:55:27;;;;;;;6.80;5.47;;;;;;;;;;5051843;28;20504;-78
2022/05/12 11:57:59;;;;;;;5.57;5.07;;;;;;;;;;5040854;28;20545;-78
2022/05/12 12:00:41;;;;;;;6.10;5.50;;;;;;;;;;5054308;28;20936;-78
2022/05/12 12:03:23;;;;;;;5.50;5.00;;;;;;;;;;5044472;28;20556;-78
2022/05/12 12:06:02;;;;;;;6.30;5.70;;;;;;;;;;5052242;28;20948;-79
2022/05/12 12:08:38;;;;;;;6.07;5.47;;;;;;;;;;5040704;28;20854;-79
2022/05/12 12:11:20;;;;;;;5.67;5.17;;;;;;;;;;5046133;28;20451;-80
2022/05/12 12:13:47;;;;;;;5.60;5.10;;;;;;;;;;5067692;28;20846;-79
2022/05/12 12:16:14;;;;;;;5.70;5.20;;;;;;;;;;5070817;28;20516;-79
2022/05/12 12:18:52;;;;;;;6.00;5.43;;;;;;;;;;5068647;28;20439;-80
2022/05/12 12:21:49;;;;;;;5.63;5.20;;;;;;;;;;5051053;28;20422;-78
2022/05/12 12:24:30;;;;;;;6.23;5.13;;;;;;;;;;5051087;28;20843;-79
2022/05/12 12:27:15;;;;;;;6.50;4.97;;;;;;;;;;5051558;28;20819;-79
2022/05/12 12:29:43;;;;;;;6.73;5.10;;;;;;;;;;5053983;28;20434;-79
2022/05/12 12:32:24;;;;;;;5.60;4.83;;;;;;;;;;5070731;28;20496;-79
2022/05/12 12:34:52;;;;;;;5.47;5.07;;;;;;;;;;5052856;28;20441;-79
2022/05/12 12:37:39;;;;;;;6.10;5.40;;;;;;;;;;5051004;28;20474;-79
2022/05/12 12:40:37;;;;;;;5.70;5.20;;;;;;;;;;5068665;28;20423;-79
2022/05/12 12:43:14;;;;;;;6.47;5.93;;;;;;;;;;5065490;28;20505;-79
2022/05/12 12:45:44;;;;;;;6.60;5.87;;;;;;;;;;5051367;28;20803;-78
2022/05/12 12:48:13;;;;;;;5.83;5.20;;;;;;;;;;5052323;28;20454;-79
2022/05/12 12:50:43;;;;;;;7.23;6.53;;;;;;;;;;5068877;28;20464;-79
2022/05/12 12:53:15;;;;;;;7.20;5.90;;;;;;;;;;5070425;28;20496;-79
2022/05/12 12:58:34;;;;;;;5.90;5.40;;;;;;;;;;5046321;28;21032;-79
2022/05/12 13:01:02;;;;;;;6.80;6.20;;;;;;;;;;5049819;28;20509;-79
2022/05/12 13:03:30;;;;;;;6.20;5.60;;;;;;;;;;5070768;28;20434;-79
2022/05/12 13:06:06;;;;;;;6.03;5.43;;;;;;;;;;5065831;28;20442;-79
2022/05/12 13:08:33;;;;;;;5.73;5.20;;;;;;;;;;5049722;28;20453;-79
2022/05/12 13:11:02;;;;;;;6.00;5.40;;;;;;;;;;5052889;28;20426;-79
2022/05/12 13:13:29;;;;;;;5.10;4.70;;;;;;;;;;5052636;28;20443;-78
2022/05/12 13:15:58;;;;;;;5.67;5.13;;;;;;;;;;5045628;28;20472;-78
2022/05/12 13:18:27;;;;;;;5.57;5.10;;;;;;;;;;5050859;28;20473;-80
2022/05/12 13:20:54;;;;;;;5.10;4.60;;;;;;;;;;5042838;28;20481;-79
2022/05/12 13:23:23;;;;;;;5.40;4.90;;;;;;;;;;5047904;28;20452;-79
2022/05/12 13:25:50;;;;;;;4.73;4.40;;;;;;;;;;5061049;28;20546;-78
2022/05/12 13:28:20;;;;;;;4.70;4.30;;;;;;;;;;5047872;28;20504;-77
2022/05/12 13:30:48;;;;;;;5.30;4.40;;;;;;;;;;5041432;28;21076;-79
2022/05/12 13:33:20;;;;;;;4.57;4.17;;;;;;;;;;5047620;28;20947;-79
2022/05/12 13:35:54;;;;;;;4.37;3.97;;;;;;;;;;5040297;28;20444;-77
2022/05/12 13:38:21;;;;;;;5.07;4.30;;;;;;;;;;5032907;28;20849;-80
2022/05/12 13:40:51;;;;;;;4.77;4.37;;;;;;;;;;5057367;28;20456;-80
2022/05/12 13:43:24;;;;;;;5.20;4.00;;;;;;;;;;5057944;28;20482;-80
2022/05/12 13:46:01;;;;;;;7.07;4.77;;;;;;;;;;5060234;28;20445;-80
2022/05/12 13:48:28;;;;;;;6.93;4.47;;;;;;;;;;5063622;28;20538;-80
2022/05/12 13:50:56;;;;;;;4.93;4.43;;;;;;;;;;5051397;28;21005;-80
2022/05/12 13:53:26;;;;;;;7.73;4.27;;;;;;;;;;5068042;28;20762;-79
2022/05/12 13:56:10;;;;;;;5.97;4.70;;;;;;;;;;5053444;28;20447;-80
2022/05/12 13:58:49;;;;;;;6.33;5.13;;;;;;;;;;5054355;28;20454;-79
2022/05/12 14:01:27;;;;;;;4.90;4.40;;;;;;;;;;5051543;28;20433;-80
2022/05/12 14:04:08;;;;;;;5.03;4.40;;;;;;;;;;5052384;28;20448;-79
2022/05/12 14:06:39;;;;;;;4.40;4.10;;;;;;;;;;5053811;28;20458;-79
2022/05/12 14:09:07;;;;;;;5.33;4.37;;;;;;;;;;5036804;28;20548;-80
2022/05/12 14:11:33;;;;;;;6.77;4.40;;;;;;;;;;5049162;28;20524;-80
2022/05/12 14:19:33;;;;;;;7.37;4.80;;;;;;;;;;5037214;28;20439;-80
2022/05/12 14:22:02;;;;;;;4.90;4.27;;;;;;;;;;5035365;28;20466;-80
2022/05/12 14:24:29;;;;;;;4.30;3.90;;;;;;;;;;5054846;28;20736;-80
2022/05/12 14:26:55;;;;;;;5.33;4.83;;;;;;;;;;5053888;28;20453;-80
2022/05/12 14:29:23;;;;;;;7.83;3.97;;;;;;;;;;5038526;28;20464;-80
2022/05/12 14:31:51;;;;;;;6.47;4.47;;;;;;;;;;5066546;28;20917;-80
2022/05/12 14:34:19;;;;;;;7.60;4.90;;;;;;;;;;5047145;28;20587;-80
2022/05/12 14:36:46;;;;;;;4.77;4.23;;;;;;;;;;5038982;28;20838;-79
2022/05/12 14:39:13;;;;;;;4.80;4.30;;;;;;;;;;5053117;28;20793;-80
2022/05/12 14:41:39;;;;;;;8.90;4.20;;;;;;;;;;5071342;28;20480;-79
2022/05/12 14:44:07;;;;;;;4.90;4.27;;;;;;;;;;5067778;28;20447;-80
2022/05/12 14:46:39;;;;;;;5.00;4.37;;;;;;;;;;5041102;28;20438;-80
2022/05/12 14:49:06;;;;;;;4.60;4.10;;;;;;;;;;5033304;28;20573;-80
2022/05/12 14:51:33;;;;;;;4.80;4.40;;;;;;;;;;5035604;28;20458;-79
2022/05/12 14:54:00;;;;;;;4.90;4.47;;;;;;;;;;5048698;28;20439;-79
2022/05/12 14:56:26;;;;;;;5.50;4.77;;;;;;;;;;5071893;28;20477;-79
2022/05/12 14:58:52;;;;;;;5.63;4.57;;;;;;;;;;5054428;28;20456;-80
2022/05/12 15:01:19;;;;;;;5.03;4.53;;;;;;;;;;5029072;28;20442;-79
2022/05/12 15:03:51;;;;;;;5.83;4.40;;;;;;;;;;5050570;28;20861;-80
2022/05/12 15:06:17;;;;;;;4.67;4.27;;;;;;;;;;5053227;28;20419;-79
2022/05/12 15:08:44;;;;;;;6.30;4.37;;;;;;;;;;5058902;28;20455;-79
2022/05/12 15:11:10;;;;;;;5.83;4.17;;;;;;;;;;5037320;28;20537;-80
2022/05/12 15:13:37;;;;;;;5.10;4.53;;;;;;;;;;5043363;28;20459;-79
2022/05/12 15:16:04;;;;;;;6.73;4.90;;;;;;;;;;5055232;28;20437;-79
2022/05/12 15:18:31;;;;;;;18.60;5.20;;;;;;;;;;5024655;28;20475;-79
2022/05/12 15:20:58;;;;;;;8.03;4.87;;;;;;;;;;5019946;28;20454;-79